Here is the Quick Look data you requested

The Data originates at the National Weather Service, and is made available here by the UAlbany Department of Atmospheric and Environmental Sciences

Surface Observations

K1V4 142054Z AUTO M12/M18 A2972 RMK AO1 SLP088 T11171183 53029=
KBTV 142054Z 30009KT 10SM FEW035 M09/M20 A2980 RMK AO2 SLP099 T10941200 53026=
KDDH 142054Z AUTO 26007KT 210V350 10SM CLR M08/M17 A2980 RMK AO2 SLP105
 T10831172 53039=
KEFK 142055Z AUTO 26004KT 10SM CLR M15/M22 A2972 RMK AO2 T11491219=
KMPV 142051Z AUTO 33005KT 10SM CLR M13/M19 A2973 RMK AO2 SLP097 T11281189 53028=
KMVL 142054Z AUTO 00000KT 10SM CLR M14/M19 A2974 RMK AO2 SLP090 T11441189 53021=
KRUT 142056Z AUTO 28012G20KT 10SM CLR M08/M20 A2977 RMK AO2 SLP101 60000
 T10831200 53029 FZRANO $=
KVSF 142054Z AUTO 25007KT 10SM CLR M07/M19 A2975 RMK AO2 SLP086 T10721189 53030=